createdAt,value
2023-09-22T00:05:29.372Z,2.30
2023-09-22T00:18:29.416Z,2.00
2023-09-22T00:31:29.554Z,1.80
2023-09-22T00:44:29.529Z,2.00
2023-09-22T00:57:29.593Z,2.10
2023-09-22T01:10:29.589Z,2.00
2023-09-22T01:23:29.610Z,2.10
2023-09-22T01:36:29.644Z,2.40
2023-09-22T01:49:29.604Z,2.20
2023-09-22T02:02:29.679Z,3.00
2023-09-22T02:15:29.684Z,2.50
2023-09-22T02:28:29.655Z,2.50
2023-09-22T02:41:29.630Z,2.50
2023-09-22T02:54:29.674Z,2.80
2023-09-22T03:07:29.641Z,3.00
2023-09-22T03:20:29.678Z,2.60
2023-09-22T03:33:29.726Z,3.10
2023-09-22T03:46:29.746Z,3.40
2023-09-22T03:59:29.712Z,3.10
2023-09-22T04:12:29.761Z,3.00
2023-09-22T04:25:29.743Z,3.00
2023-09-22T04:38:29.744Z,3.50
2023-09-22T04:51:29.734Z,4.20
2023-09-22T05:05:29.879Z,3.70
2023-09-22T05:19:29.725Z,3.00
2023-09-22T05:33:29.760Z,4.00
2023-09-22T05:47:29.752Z,3.60
2023-09-22T06:01:29.774Z,3.30
2023-09-22T06:16:29.781Z,2.60
2023-09-22T06:30:29.772Z,2.10
2023-09-22T06:44:29.770Z,2.60
2023-09-22T06:58:29.769Z,2.50
2023-09-22T07:12:29.769Z,2.60
2023-09-22T07:26:29.788Z,2.30
2023-09-22T07:40:29.797Z,2.20
2023-09-22T07:54:29.814Z,2.10
2023-09-22T08:08:29.794Z,2.20
2023-09-22T08:22:29.807Z,1.90
2023-09-22T08:36:29.820Z,1.90
2023-09-22T08:50:29.823Z,1.80
2023-09-22T09:04:29.892Z,1.70
2023-09-22T09:18:29.801Z,1.40
2023-09-22T09:32:29.868Z,1.30
2023-09-22T09:46:29.853Z,1.40
2023-09-22T10:00:29.877Z,1.40
2023-09-22T10:14:29.835Z,1.20
2023-09-22T10:28:29.912Z,3.30
2023-09-22T10:42:29.851Z,4.00
2023-09-22T10:56:29.877Z,3.90
2023-09-22T11:10:29.917Z,3.50
2023-09-22T11:24:29.877Z,3.20
2023-09-22T11:38:29.894Z,2.70
2023-09-22T11:49:29.968Z,2.40
2023-09-22T12:03:30.021Z,2.60
2023-09-22T12:17:29.914Z,2.20
2023-09-22T12:31:31.605Z,2.20
2023-09-22T12:45:30.018Z,2.10
2023-09-22T12:59:29.978Z,2.00
2023-09-22T13:13:30.065Z,2.10
2023-09-22T13:27:30.005Z,1.90
2023-09-22T13:41:29.995Z,1.70
2023-09-22T13:55:30.024Z,1.80
2023-09-22T14:09:30.080Z,1.90
2023-09-22T14:23:30.011Z,1.70
2023-09-22T14:37:30.011Z,1.80
2023-09-22T14:51:30.036Z,2.00
2023-09-22T15:06:30.055Z,2.60
2023-09-22T15:20:30.056Z,2.90
2023-09-22T15:34:30.099Z,2.90
2023-09-22T15:48:30.110Z,3.00
2023-09-22T16:02:30.169Z,3.10
2023-09-22T16:16:30.340Z,3.50
2023-09-22T16:30:30.042Z,3.20
2023-09-22T16:44:30.292Z,3.00
2023-09-22T16:59:30.420Z,3.10
2023-09-22T17:14:30.278Z,3.20
2023-09-22T17:28:30.323Z,3.10
2023-09-22T17:42:30.097Z,3.70
2023-09-22T17:55:30.107Z,3.90
2023-09-22T18:08:30.129Z,4.00
2023-09-22T18:21:30.091Z,3.70
2023-09-22T18:34:30.144Z,4.60
2023-09-22T18:47:30.164Z,4.60
2023-09-22T19:00:30.135Z,4.00
2023-09-22T19:13:30.490Z,3.70
2023-09-22T19:26:30.138Z,3.70
2023-09-22T19:39:30.235Z,3.30
2023-09-22T19:52:30.225Z,3.40
2023-09-22T20:05:30.179Z,3.30
2023-09-22T20:18:30.275Z,3.20
2023-09-22T20:31:30.231Z,3.40
2023-09-22T20:44:30.252Z,3.50
2023-09-22T20:57:30.151Z,3.20
2023-09-22T21:10:30.188Z,3.40
2023-09-22T21:23:30.181Z,3.10
2023-09-22T21:36:30.220Z,3.10
2023-09-22T21:49:30.262Z,3.10
2023-09-22T22:02:30.261Z,3.40
2023-09-22T22:15:30.316Z,3.30
2023-09-22T22:28:30.314Z,3.20
2023-09-22T22:41:30.376Z,2.90
2023-09-22T22:54:31.654Z,3.10
2023-09-22T23:07:30.414Z,3.10
2023-09-22T23:20:30.403Z,3.20
2023-09-22T23:33:30.497Z,2.90
2023-09-22T23:46:30.431Z,2.70
2023-09-22T23:59:30.401Z,3.00
